メインページ
METAR-TAF:

METAR-TAF

空港 :

モントリオール・トルドー, ケベック州, カナダ

モントリオール・ピエール・エリオット・トルドー国際空港

緯度: 45-28N, 経度: 073-45W, 海抜: 31m

現時点の気象観測

当レポートは1時間34分前の21:00(UTC)に作成
南西の風 7kt
気温 23°C
湿度 65%
気圧 1018 hPa
視程: 48.3km
高度5000ftの雲はほとんどない
高度7000ftの曇り

METAR: CYUL 262100Z 22007KT 30SM FEW050 OVC070 23/16 A3007 RMK CF1AC8 CF TR SLP183 DENSITY ALT 900FT

時間: 18:34 (22:34 UTC)

予報

当レポートは1時間56分前の20:38(UTC)に作成
予報は26日の 21時(UTC)から 27日の 18時(UTC)まで有効
南西の風 10kt
視程: 10km
高度7000ftの千切れ雲あり
27日の 0000時(UTC)から
西/南西の風 12kt
視程: 10km
高度3000ftの雲は散在している
高度12000ftの千切れ雲あり
27日の 00時(UTC)から 27日の 05時(UTC)まで一時的に
視程: 10km
高度3000ftの千切れ雲あり
高度12000ftの千切れ雲あり
弱いにわか雨
27日の 0500時(UTC)から
南西の風 12kt
視程: 10km
高度4000ftの千切れ雲あり
27日の 05時(UTC)から 27日の 09時(UTC)まで一時的に
視程: 10km
高度2000ftの千切れ雲あり
弱いにわか雨
27日の 0900時(UTC)から
西/南西の風 12kt、最大22ktの突風を伴う
視程: 10km
高度800ftの雲は散在している
高度2000ftの曇り
弱いにわか雨
27日の 1500時(UTC)から
西/南西の風 12kt、最大22ktの突風を伴う
視程: 10km
高度2000ftの千切れ雲あり

TAF: CYUL 262038Z 2621/2718 22010KT P6SM BKN070 FM270000 24012KT P6SM SCT030 BKN120 TEMPO 2700/2705 P6SM -SHRA BKN030 BKN120 FM270500 22012KT P6SM BKN040 TEMPO 2705/2709 P6SM -SHRA BKN020 FM270900 24012G22KT P6SM -SHRA SCT008 OVC020 FM271500 25012G22KT P6SM BKN020 RMK NXT FCST BY 270000Z

4,000以上の空港の気象観測と天気予報(METAR報とTAF報)

利用可能な観測所は地図上に黄色い丸と赤い丸で示す。

丸の上にカーソルを重ねると観測所名を参照できる。

次にクリックすると気象観測と天気予報を参照できる。

マップの切り替え:黒色「×」印の緑ボタンをクリックして拡大、「-」印の緑ボタンをクリックして縮小、緑色の三角印をクリックして隣りの地図に切り替え


METAR-TAF: